Time;durP1;ratioP1;P1;durP2;ratioP2;P2;SDS_P1;SDS_P2;PMS_P1;PMS_P2;Temp;Humidity;BMP_temperature;BMP_pressure;BME280_temperature;BME280_humidity;BME280_pressure;Samples;Min_cycle;Max_cycle;Signal;HPM_P1;HPM_P2
2022/01/13 11:29:18;;;;;;;2.13;1.75;;;14.90;13.70;8.90;95871.00;;;;6231801;22;20222;-81
2022/01/13 11:31:51;;;;;;;3.25;1.48;;;14.40;17.10;8.80;95902.00;;;;6232806;23;20182;-80
2022/01/13 11:34:24;;;;;;;1.58;1.30;;;13.90;30.50;9.50;95744.00;;;;6232501;23;20168;-81
2022/01/13 11:36:53;;;;;;;2.00;1.30;;;13.40;42.70;9.70;95864.00;;;;6231401;23;20176;-82
2022/01/13 11:39:42;;;;;;;1.58;1.20;;;13.30;62.70;8.80;95868.00;;;;6209410;23;20411;-79
2022/01/13 11:42:15;;;;;;;1.25;1.10;;;13.30;57.20;9.50;95714.00;;;;6212297;23;20232;-81
2022/01/13 11:45:13;;;;;;;1.63;1.42;;;13.10;61.50;9.20;95880.00;;;;6237189;22;20235;-79
2022/01/13 11:47:46;;;;;;;1.20;1.10;;;13.10;64.40;9.30;95722.00;;;;6212615;23;20179;-80
2022/01/13 11:50:30;;;;;;;2.50;1.80;;;13.00;77.60;9.10;95775.00;;;;6238450;23;20214;-81
2022/01/13 11:53:01;;;;;;;2.33;2.00;;;13.10;74.60;9.90;95722.00;;;;6211945;23;20171;-83
2022/01/13 11:55:34;;;;;;;2.03;1.75;;;13.20;84.60;10.00;95885.00;;;;6235465;23;20234;-81
2022/01/13 11:58:31;;;;;;;1.65;1.40;;;13.30;75.60;10.20;95736.00;;;;6235029;23;20184;-80
2022/01/13 12:01:28;;;;;;;2.17;1.60;;;13.40;70.80;10.30;95553.00;;;;6210319;23;20203;-80
2022/01/13 12:04:06;;;;;;;1.30;1.13;;;13.40;71.20;10.30;95803.00;;;;6235550;23;20234;-79
2022/01/13 12:06:49;;;;;;;1.20;1.10;;;13.40;59.30;9.50;95706.00;;;;6240084;23;20175;-81
2022/01/13 12:09:23;;;;;;;0.93;0.90;;;13.30;69.00;9.80;95873.00;;;;6264942;22;20171;-82
2022/01/13 12:12:27;;;;;;;1.58;1.27;;;13.00;62.00;8.60;95583.00;;;;6265813;22;20177;-81
2022/01/13 12:15:17;;;;;;;1.10;1.00;;;12.80;67.60;9.50;95677.00;;;;6247980;23;20155;-81
2022/01/13 12:17:53;;;;;;;0.95;0.90;;;12.50;85.00;8.20;95888.00;;;;6266249;23;20198;-80
2022/01/13 12:20:42;;;;;;;1.20;1.10;;;12.20;99.90;10.60;95645.00;;;;6265252;23;20163;-83
2022/01/13 12:23:38;;;;;;;1.38;1.27;;;12.40;99.90;11.00;95466.00;;;;6291005;22;20151;-81
2022/01/13 12:26:31;;;;;;;3.05;1.90;;;13.00;85.70;12.00;95836.00;;;;6241613;23;20169;-80
2022/01/13 12:29:29;;;;;;;1.80;1.42;;;13.50;71.30;12.30;95835.00;;;;6244895;22;20183;-81
2022/01/13 12:32:11;;;;;;;1.23;1.10;;;14.00;45.90;12.00;95658.00;;;;6270233;22;20147;-79
2022/01/13 12:34:43;;;;;;;1.38;1.27;;;14.60;27.20;12.00;95832.00;;;;6244666;23;20175;-80
2022/01/13 12:37:14;;;;;;;1.70;1.58;;;15.00;15.00;11.80;95506.00;;;;6244507;23;20255;-80
2022/01/13 12:40:13;;;;;;;1.65;1.40;;;15.30;5.80;12.10;95702.00;;;;6245862;22;20174;-80
2022/01/13 12:43:49;;;;;;;1.50;1.40;;;15.60;1.00;12.20;95680.00;;;;6246032;23;20190;-79
2022/01/13 12:46:25;;;;;;;1.73;1.48;;;16.00;1.00;11.40;95584.00;;;;6269253;23;20181;-82
2022/01/13 12:48:59;;;;;;;3.00;1.90;;;16.30;1.00;11.30;95831.00;;;;6242738;23;20174;-79
2022/01/13 12:51:42;;;;;;;1.90;1.50;;;16.40;1.00;11.10;95655.00;;;;6269487;22;20163;-81
2022/01/13 12:54:12;;;;;;;2.42;1.70;;;16.70;1.00;11.90;95572.00;;;;6243603;23;20163;-80
2022/01/13 12:56:45;;;;;;;1.45;1.35;;;17.00;1.00;11.30;95823.00;;;;6269183;22;20171;-80
2022/01/13 12:59:25;;;;;;;1.58;1.48;;;16.70;1.00;10.70;95735.00;;;;6269396;22;20178;-79
2022/01/13 13:02:06;;;;;;;1.95;1.65;;;16.40;1.00;10.20;95569.00;;;;6267354;23;20209;-80
2022/01/13 13:04:42;;;;;;;2.75;1.90;;;16.10;1.00;9.80;95636.00;;;;6240510;23;20191;-83
2022/01/13 13:07:23;;;;;;;1.95;1.80;;;15.50;1.00;9.10;95790.00;;;;6265416;22;20158;-82
2022/01/13 13:10:08;;;;;;;1.98;1.73;;;15.10;1.00;9.10;95807.00;;;;6240410;23;20471;-81
2022/01/13 13:12:49;;;;;;;2.30;1.80;;;14.40;1.00;9.40;95582.00;;;;6241755;23;20175;-80
2022/01/13 13:17:55;;;;;;;2.15;1.70;;;13.90;13.10;10.00;95658.00;;;;6291894;22;20550;-79
2022/01/13 13:20:35;;;;;;;1.95;1.83;;;13.90;18.30;9.80;95645.00;;;;6241154;23;20159;-81
2022/01/13 13:23:10;;;;;;;1.80;1.40;;;13.90;11.50;9.00;95679.00;;;;6264607;23;20223;-83
2022/01/13 13:25:44;;;;;;;2.83;1.80;;;13.60;15.50;9.90;95887.00;;;;6238855;23;20155;-82
2022/01/13 13:28:37;;;;;;;3.25;1.90;;;13.40;30.80;9.80;95688.00;;;;6262031;23;20189;-81
2022/01/13 13:31:33;;;;;;;3.90;3.15;;;13.70;38.90;10.30;95529.00;;;;6238924;23;20171;-84
2022/01/13 13:34:07;;;;;;;2.95;2.05;;;14.20;29.00;10.50;95607.00;;;;6245112;23;20151;-83
2022/01/13 13:36:45;;;;;;;2.53;1.83;;;14.30;20.30;9.70;95922.00;;;;6241862;23;20163;-81
2022/01/13 13:39:22;;;;;;;2.38;2.17;;;14.00;13.00;10.60;95797.00;;;;6240980;23;20202;-80
2022/01/13 13:42:01;;;;;;;2.13;1.92;;;14.00;17.20;9.50;95653.00;;;;6264635;23;20175;-81
2022/01/13 13:44:41;;;;;;;2.08;1.80;;;13.90;19.70;10.00;95766.00;;;;6264238;23;20221;-79
2022/01/13 13:47:18;;;;;;;2.47;1.90;;;14.00;19.90;9.40;95835.00;;;;6262347;23;20183;-82
2022/01/13 13:49:53;;;;;;;2.15;1.95;;;13.80;17.70;9.70;95692.00;;;;6264373;23;20227;-81
2022/01/13 13:52:23;;;;;;;2.65;1.98;;;13.60;26.20;9.20;95748.00;;;;6287439;22;20151;-82
2022/01/13 13:54:54;;;;;;;2.35;2.13;;;13.90;27.70;9.40;95774.00;;;;6236868;23;20159;-80
2022/01/13 13:57:36;;;;;;;2.10;1.90;;;14.10;26.60;9.60;95523.00;;;;6259837;23;20171;-81
2022/01/13 14:00:09;;;;;;;3.58;2.38;;;13.90;23.90;10.00;95590.00;;;;6236703;23;20199;-79
2022/01/13 14:02:40;;;;;;;2.17;1.95;;;14.10;19.40;9.60;95671.00;;;;6288247;22;20588;-80
2022/01/13 14:05:14;;;;;;;2.97;2.03;;;14.20;17.00;8.50;95623.00;;;;6287114;22;20255;-82
2022/01/13 14:07:47;;;;;;;2.67;2.13;;;14.10;7.50;8.90;95551.00;;;;6288326;22;20554;-82
2022/01/13 14:10:18;;;;;;;2.10;1.70;;;13.90;12.30;8.30;95939.00;;;;6263429;23;20191;-82
2022/01/13 14:12:59;;;;;;;3.10;2.15;;;13.80;15.90;8.60;95797.00;;;;6239049;23;20231;-80
2022/01/13 14:15:42;;;;;;;2.53;2.17;;;13.50;25.00;8.50;95647.00;;;;6239309;23;20234;-82
2022/01/13 14:18:14;;;;;;;3.17;2.63;;;13.20;27.30;8.40;95807.00;;;;6264071;23;20602;-79
2022/01/13 14:21:04;;;;;;;4.43;3.28;;;12.80;37.10;7.10;95828.00;;;;6263999;23;20181;-82
2022/01/13 14:23:35;;;;;;;2.95;2.65;;;12.50;43.70;7.60;95496.00;;;;6264976;23;20163;-82
2022/01/13 14:26:14;;;;;;;3.00;2.58;;;12.10;59.90;7.50;95588.00;;;;6265194;23;20210;-80
2022/01/13 14:28:48;;;;;;;3.10;2.55;;;11.70;99.90;7.30;95564.00;;;;6240546;23;20242;-79
2022/01/13 14:31:18;;;;;;;3.47;2.50;;;11.30;99.90;6.20;95648.00;;;;6240489;23;20238;-82
2022/01/13 14:33:48;;;;;;;4.13;3.13;;;11.10;99.90;7.40;95630.00;;;;6291656;22;20171;-81
2022/01/13 14:36:26;;;;;;;3.40;2.72;;;10.50;99.90;7.10;95613.00;;;;6240394;23;20198;-79
2022/01/13 14:39:12;;;;;;;3.28;2.60;;;9.90;99.90;5.60;95684.00;;;;6264909;23;20191;-79
2022/01/13 14:41:43;;;;;;;6.50;2.40;;;9.30;99.90;5.60;95614.00;;;;6290452;22;20223;-80
2022/01/13 14:44:14;;;;;;;3.13;2.42;;;8.70;99.90;5.80;95853.00;;;;6239539;23;20159;-79
2022/01/13 14:46:56;;;;;;;3.63;2.88;;;8.00;99.90;5.60;95678.00;;;;6239051;23;20181;-82
2022/01/13 14:49:28;;;;;;;3.35;2.78;;;7.80;99.90;5.70;95612.00;;;;6265725;23;20242;-79
2022/01/13 14:52:01;;;;;;;5.53;3.10;;;7.50;1.00;5.50;95652.00;;;;6267931;22;20148;-79
2022/01/13 14:54:45;;;;;;;4.50;3.15;;;7.10;1.00;4.20;95588.00;;;;6243958;23;20167;-79
2022/01/13 14:57:19;;;;;;;3.70;3.20;;;6.50;1.00;4.10;95846.00;;;;6258774;22;20199;-79
2022/01/13 14:59:57;;;;;;;5.13;3.05;;;5.60;1.00;2.80;95846.00;;;;6184109;23;20224;-80
2022/01/13 15:02:25;;;;;;;4.50;3.27;;;4.90;99.90;2.80;95508.00;;;;6206313;23;20167;-80
2022/01/13 15:05:02;;;;;;;4.13;3.40;;;4.10;1.00;2.60;95640.00;;;;6198133;23;20520;-81
2022/01/13 15:07:45;;;;;;;;;;;;;;;;;;;;;
2022/01/13 15:13:04;;;;;;;4.70;3.40;;;2.90;99.90;2.50;95688.00;;;;6201995;22;20200;-79
2022/01/13 15:29:04;;;;;;;4.57;2.93;;;1.20;1.00;0.80;95739.00;;;;6209077;23;20195;-82
2022/01/13 15:31:32;;;;;;;4.37;3.43;;;1.00;97.50;-0.20;95645.00;;;;6207032;23;20164;-82
2022/01/13 15:34:08;;;;;;;6.87;3.43;;;0.90;99.90;-0.20;95988.00;;;;6183985;23;20168;-80
2022/01/13 15:36:42;;;;;;;5.77;4.10;;;0.80;99.90;0.20;95537.00;;;;6182973;23;20161;-79
2022/01/13 15:39:16;;;;;;;5.07;3.33;;;0.60;1.00;0.00;95677.00;;;;6209302;23;20200;-81
2022/01/13 15:41:48;;;;;;;11.10;3.80;;;0.50;1.00;0.00;95508.00;;;;6208779;23;20196;-80
2022/01/13 15:44:19;;;;;;;5.80;3.47;;;0.40;1.00;-0.60;95617.00;;;;6184538;23;20164;-81
2022/01/13 15:52:21;;;;;;;5.93;3.73;;;0.00;99.90;-1.80;95641.00;;;;6206905;22;20207;-80
2022/01/13 15:57:35;;;;;;;7.97;4.03;;;-0.10;99.90;-0.70;95521.00;;;;6200516;22;20210;-79
2022/01/13 16:00:13;;;;;;;7.03;3.93;;;-0.20;1.00;-1.40;95667.00;;;;6209140;23;20152;-79
2022/01/13 16:02:48;;;;;;;6.80;3.57;;;-0.20;1.00;-0.20;95674.00;;;;6181016;23;20164;-82
2022/01/13 16:05:27;;;;;;;6.33;3.90;;;-0.30;1.00;-1.10;95540.00;;;;6176094;23;20220;-81
2022/01/13 16:10:37;;;;;;;8.60;4.17;;;-0.40;1.00;-1.50;95595.00;;;;6206244;23;20170;-82
2022/01/13 16:13:07;;;;;;;6.93;4.07;;;-0.40;1.00;-0.30;95917.00;;;;6205198;23;20177;-81
2022/01/13 16:15:38;;;;;;;5.23;3.47;;;-0.40;1.00;-0.50;95581.00;;;;6180581;23;20168;-81
2022/01/13 16:18:06;;;;;;;6.63;3.73;;;-0.40;1.00;-1.50;95437.00;;;;6203158;23;20216;-81
2022/01/13 16:20:34;;;;;;;7.33;3.53;;;-0.50;1.00;-0.50;95828.00;;;;6153466;23;20624;-81
2022/01/13 16:23:01;;;;;;;6.90;3.37;;;-0.50;1.00;-0.50;95759.00;;;;6178969;23;20179;-81
2022/01/13 16:25:32;;;;;;;6.63;3.33;;;-0.60;1.00;-0.90;95559.00;;;;6181284;23;20175;-82
2022/01/13 16:28:00;;;;;;;5.47;3.40;;;-0.60;1.00;-1.20;95938.00;;;;6204292;23;20172;-81
2022/01/13 16:30:28;;;;;;;5.77;3.37;;;-0.70;1.00;-0.60;95552.00;;;;6173861;23;20187;-82
2022/01/13 16:32:57;;;;;;;3.97;2.70;;;-0.70;1.00;-0.60;95575.00;;;;6148762;23;20184;-83
2022/01/13 16:35:31;;;;;;;6.37;3.00;;;-0.70;43.20;-0.90;95552.00;;;;6177173;23;20161;-83
2022/01/13 16:38:01;;;;;;;6.73;2.93;;;-0.70;28.20;-1.00;95609.00;;;;6175791;23;20228;-82
2022/01/13 16:40:37;;;;;;;3.33;2.40;;;-0.70;1.00;-0.70;95677.00;;;;6197699;23;20172;-81
2022/01/13 16:43:10;;;;;;;4.10;2.70;;;-0.70;1.00;-0.60;95605.00;;;;6177946;23;20719;-84
2022/01/13 16:45:43;;;;;;;3.20;2.27;;;-0.70;5.30;-0.80;95551.00;;;;6178117;23;20169;-81
2022/01/13 16:48:21;;;;;;;4.87;2.60;;;-0.70;1.00;-1.70;95520.00;;;;6155326;23;20284;-81
2022/01/13 16:50:53;;;;;;;4.07;2.43;;;-0.70;1.00;-0.90;95567.00;;;;6175042;23;20164;-82
2022/01/13 16:53:23;;;;;;;4.03;2.37;;;-0.70;1.00;-0.70;95742.00;;;;6176054;23;20172;-82
2022/01/13 16:55:54;;;;;;;3.03;2.30;;;-0.70;1.00;-0.60;95349.00;;;;6145124;23;20269;-82
2022/01/13 16:58:28;;;;;;;3.60;2.33;;;-0.70;1.00;-1.70;95449.00;;;;6145632;23;20252;-81
2022/01/13 17:00:56;;;;;;;15.93;9.53;;;-0.70;1.00;-1.60;95760.00;;;;6170058;23;20168;-82
2022/01/13 17:03:24;;;;;;;75.03;34.33;;;-0.80;1.00;-0.50;95634.00;;;;6170719;23;20192;-81
2022/01/13 17:05:52;;;;;;;30.40;17.80;;;-0.70;23.80;-1.00;95947.00;;;;6173866;23;20204;-80
2022/01/13 17:08:24;;;;;;;22.40;14.33;;;-0.70;17.90;-0.60;95503.00;;;;6175701;23;20176;-81
2022/01/13 17:10:58;;;;;;;6.23;4.13;;;-0.70;2.90;-0.60;95642.00;;;;6151642;23;20180;-82
2022/01/13 17:13:27;;;;;;;7.63;5.03;;;-0.70;1.00;-0.60;95605.00;;;;6176747;23;20196;-80
2022/01/13 17:15:55;;;;;;;5.00;2.67;;;-0.70;1.00;-0.50;95626.00;;;;6175171;23;20195;-81
2022/01/13 17:18:23;;;;;;;4.57;2.30;;;-0.70;1.00;-0.50;95572.00;;;;6200504;23;20180;-81
2022/01/13 17:20:54;;;;;;;3.63;2.10;;;-0.70;1.00;-0.50;95833.00;;;;6149758;23;20173;-81
2022/01/13 17:23:27;;;;;;;7.27;3.33;;;-0.70;1.00;-0.50;95570.00;;;;6172798;23;20168;-82
2022/01/13 17:25:56;;;;;;;3.27;2.30;;;-0.70;1.00;-0.40;95808.00;;;;6175140;23;20219;-82
2022/01/13 17:28:27;;;;;;;4.10;2.17;;;-0.70;99.90;-0.50;95815.00;;;;6149680;23;20255;-82
2022/01/13 17:31:01;;;;;;;3.47;2.00;;;-0.70;99.90;-0.50;95652.00;;;;6199324;23;20164;-81
2022/01/13 17:33:29;;;;;;;5.13;2.43;;;-0.60;99.90;-1.10;95540.00;;;;6174898;23;20236;-82
2022/01/13 17:35:58;;;;;;;3.53;1.87;;;-0.70;99.90;-0.50;95852.00;;;;6176156;23;20168;-82
2022/01/13 17:38:31;;;;;;;3.77;1.77;;;-0.70;99.90;-0.50;95836.00;;;;6150560;23;20215;-81
2022/01/13 17:40:59;;;;;;;2.97;2.00;;;-0.70;99.90;-0.40;95962.00;;;;6151070;23;20169;-82
2022/01/13 17:43:29;;;;;;;2.73;1.97;;;-0.70;99.90;-0.70;95610.00;;;;6152441;23;20178;-81
2022/01/13 17:45:57;;;;;;;4.93;1.90;;;-0.70;99.90;-0.60;95540.00;;;;6176716;23;20195;-82
2022/01/13 17:48:25;;;;;;;3.47;2.00;;;-0.80;1.00;-1.70;95834.00;;;;6150394;23;20259;-81
2022/01/13 17:51:03;;;;;;;3.33;1.90;;;-0.80;1.00;-0.50;95540.00;;;;6172808;23;20180;-82
2022/01/13 17:53:31;;;;;;;2.27;1.70;;;-0.80;1.00;-0.80;95900.00;;;;6175763;23;20200;-81
2022/01/13 17:55:59;;;;;;;2.60;1.77;;;-0.80;1.00;-2.20;95461.00;;;;6150833;23;20160;-82
2022/01/13 17:58:30;;;;;;;2.07;1.73;;;-0.80;1.00;-2.00;95826.00;;;;6201233;23;20175;-81
2022/01/13 18:00:59;;;;;;;2.47;1.60;;;-0.90;1.00;-1.80;95574.00;;;;6152558;23;20156;-82
2022/01/13 18:03:35;;;;;;;2.83;1.90;;;-0.90;1.00;-0.60;95858.00;;;;6152630;23;20225;-81
2022/01/13 18:06:05;;;;;;;3.30;1.40;;;-0.90;1.00;-0.90;95504.00;;;;6151788;23;20219;-81
2022/01/13 18:08:33;;;;;;;2.27;1.60;;;-0.80;1.00;-0.60;95510.00;;;;6151419;23;20215;-81
2022/01/13 18:11:01;;;;;;;1.97;1.40;;;-0.80;99.90;-1.80;95467.00;;;;6175828;23;20427;-80
2022/01/13 18:13:38;;;;;;;1.40;1.10;;;-0.80;99.90;-1.00;95492.00;;;;6178265;23;20157;-81
2022/01/13 18:16:09;;;;;;;1.43;1.10;;;-0.80;99.90;-0.70;95657.00;;;;6177296;23;20187;-81
2022/01/13 18:18:39;;;;;;;6.40;3.83;;;-0.80;99.90;-0.60;95800.00;;;;6150442;23;20193;-83
2022/01/13 18:21:07;;;;;;;1.37;1.00;;;-0.80;99.90;-0.70;95750.00;;;;6177045;23;20191;-80
2022/01/13 18:23:35;;;;;;;1.80;1.20;;;-0.90;99.90;-0.70;95540.00;;;;6177859;23;20161;-80
2022/01/13 18:26:09;;;;;;;1.90;0.80;;;-0.90;99.90;-1.00;95902.00;;;;6153206;23;20288;-81
2022/01/13 18:28:41;;;;;;;0.67;0.67;;;-0.80;1.00;-0.60;95305.00;;;;6180274;23;20163;-82
2022/01/13 18:31:12;;;;;;;2.83;1.10;;;-0.80;1.00;-0.60;95630.00;;;;6203300;23;20176;-82
2022/01/13 18:33:40;;;;;;;3.60;1.20;;;-0.80;99.90;-1.10;95580.00;;;;6177281;23;20153;-81
2022/01/13 18:36:10;;;;;;;1.60;0.70;;;-0.80;99.90;-1.20;95880.00;;;;6154958;23;20908;-81
2022/01/13 18:38:40;;;;;;;4.23;2.40;;;-0.70;99.90;-0.60;95560.00;;;;6154132;23;20184;-82
2022/01/13 18:41:08;;;;;;;1.07;0.97;;;-0.70;27.10;-1.90;95463.00;;;;6154239;23;20196;-82
2022/01/13 18:43:42;;;;;;;1.67;1.17;;;-0.70;4.50;-0.60;95632.00;;;;6175688;23;20180;-81
2022/01/13 18:46:19;;;;;;;2.57;0.90;;;-0.70;1.00;-1.10;95487.00;;;;6179739;23;20173;-81
2022/01/13 18:48:47;;;;;;;1.00;0.63;;;-0.60;1.00;-0.50;95801.00;;;;6176237;23;20157;-80
2022/01/13 18:51:17;;;;;;;0.50;0.50;;;-0.60;1.00;-0.50;95590.00;;;;6174086;23;20180;-80
2022/01/13 18:53:53;;;;;;;1.33;0.60;;;-0.60;1.00;-1.40;95554.00;;;;6171902;23;20172;-82
2022/01/13 18:56:21;;;;;;;0.90;0.73;;;-0.40;1.00;0.00;95536.00;;;;6172785;23;20183;-80
2022/01/13 18:58:49;;;;;;;3.03;0.70;;;-0.40;1.00;-1.50;95541.00;;;;6150240;23;20180;-81
2022/01/13 19:01:20;;;;;;;2.17;0.60;;;-0.40;1.00;-0.40;95756.00;;;;6173476;23;20226;-80
2022/01/13 19:03:47;;;;;;;0.93;0.53;;;-0.40;1.00;-0.30;95542.00;;;;6173217;23;20204;-81
2022/01/13 19:06:17;;;;;;;0.70;0.57;;;-0.40;99.90;-1.30;95581.00;;;;6149271;23;20281;-81
2022/01/13 19:08:47;;;;;;;1.10;0.60;;;-0.40;99.90;-0.60;95533.00;;;;6172988;23;20199;-81
2022/01/13 19:11:18;;;;;;;1.17;0.70;;;-0.40;99.90;-0.10;95605.00;;;;6173764;23;20184;-80
2022/01/13 19:13:51;;;;;;;0.93;0.77;;;-0.40;99.90;-0.10;95532.00;;;;6199501;23;20172;-80
2022/01/13 19:16:22;;;;;;;0.60;0.50;;;-0.40;99.90;-0.30;95651.00;;;;6148027;23;20169;-81
2022/01/13 19:18:56;;;;;;;0.50;0.40;;;-0.50;99.90;-0.50;95634.00;;;;6149574;23;20192;-81
2022/01/13 19:21:24;;;;;;;1.23;0.70;;;-0.50;99.90;-0.70;95402.00;;;;6175732;23;20222;-82
2022/01/13 19:23:52;;;;;;;0.70;0.40;;;-0.60;99.90;-1.40;95572.00;;;;6174880;23;20156;-81
2022/01/13 19:26:23;;;;;;;1.37;0.60;;;-0.60;99.90;-0.70;95666.00;;;;6150554;23;20156;-81
2022/01/13 19:28:59;;;;;;;0.77;0.50;;;-0.60;99.90;-1.20;95608.00;;;;6155596;23;20186;-81
2022/01/13 19:31:28;;;;;;;0.93;0.70;;;-0.70;99.90;-1.50;95533.00;;;;6178706;23;20180;-81
2022/01/13 19:33:58;;;;;;;1.20;0.70;;;-0.70;99.90;-1.30;95522.00;;;;6176739;23;20177;-81
2022/01/13 19:36:29;;;;;;;0.77;0.47;;;-0.70;99.90;-0.60;95538.00;;;;6178326;23;20152;-82
2022/01/13 19:38:58;;;;;;;2.00;0.60;;;-0.70;1.00;-0.60;95583.00;;;;6177489;23;20191;-82
2022/01/13 19:41:28;;;;;;;0.70;0.60;;;-0.70;1.00;-1.10;95485.00;;;;6174073;23;20184;-81
2022/01/13 19:43:56;;;;;;;0.80;0.63;;;-0.80;1.00;-0.80;95733.00;;;;6148591;23;20174;-81
2022/01/13 19:46:28;;;;;;;1.80;0.70;;;-0.80;1.00;-1.80;95567.00;;;;6152935;23;20169;-81
2022/01/13 19:48:59;;;;;;;1.20;1.07;;;-0.90;1.00;-2.40;95858.00;;;;6153723;23;20152;-81
2022/01/13 19:51:34;;;;;;;1.27;0.93;;;-1.00;1.00;-0.90;95563.00;;;;6176557;23;20177;-80
2022/01/13 19:54:03;;;;;;;2.77;1.10;;;-1.00;1.00;-1.30;95415.00;;;;6152395;23;20172;-82
2022/01/13 19:56:39;;;;;;;1.03;0.90;;;-1.10;1.00;-0.90;95789.00;;;;6178253;23;20149;-81
2022/01/13 19:59:09;;;;;;;1.47;1.10;;;-1.00;1.00;-0.90;95585.00;;;;6156822;23;20248;-82
2022/01/13 20:01:40;;;;;;;1.23;0.90;;;-1.00;1.00;-0.80;95607.00;;;;6182641;23;20191;-81
2022/01/13 20:04:10;;;;;;;1.67;1.20;;;-0.90;1.00;-2.00;95902.00;;;;6206297;23;20160;-80
2022/01/13 20:06:41;;;;;;;4.73;2.33;;;-0.90;1.00;-0.80;95468.00;;;;6208816;23;20149;-81
2022/01/13 20:09:13;;;;;;;2.07;1.20;;;-0.90;1.00;-0.50;95636.00;;;;6158507;23;20188;-80
2022/01/13 20:11:44;;;;;;;2.60;1.50;;;-0.90;1.00;-0.80;95508.00;;;;6137155;23;20155;-82
2022/01/13 20:14:15;;;;;;;1.37;1.13;;;-0.90;1.00;-0.50;95534.00;;;;6207249;23;20157;-82
2022/01/13 20:16:55;;;;;;;2.67;1.30;;;-1.00;1.00;-0.80;95817.00;;;;6158687;23;20160;-83
2022/01/13 20:19:27;;;;;;;2.13;1.30;;;-0.90;1.00;-0.80;95648.00;;;;6181679;23;20176;-81
2022/01/13 20:21:57;;;;;;;16.83;4.17;;;-0.90;1.00;-0.90;95869.00;;;;6179796;23;20248;-82
2022/01/13 20:24:27;;;;;;;22.43;4.33;;;-0.90;1.00;-1.90;95562.00;;;;6152442;23;20172;-81
2022/01/13 20:26:55;;;;;;;4.97;1.83;;;-1.00;1.00;-1.20;95672.00;;;;6152725;23;20196;-82
2022/01/13 20:29:23;;;;;;;2.33;1.33;;;-1.00;1.00;-1.10;95406.00;;;;6178680;23;20160;-81
2022/01/13 20:31:53;;;;;;;3.50;1.60;;;-1.10;1.00;-0.70;95335.00;;;;6175804;23;20152;-81
2022/01/13 20:34:22;;;;;;;2.70;1.47;;;-1.10;1.00;-0.80;95528.00;;;;6178249;23;20239;-82
2022/01/13 20:36:51;;;;;;;3.63;1.70;;;-1.00;1.00;-1.60;95252.00;;;;6179291;23;20173;-82
2022/01/13 20:39:23;;;;;;;2.67;1.30;;;-0.90;1.00;-1.10;95759.00;;;;6177773;23;20189;-82
2022/01/13 20:41:52;;;;;;;3.53;1.60;;;-0.90;1.00;-1.20;95544.00;;;;6107685;23;20477;-82
2022/01/13 20:44:20;;;;;;;1.50;1.10;;;-0.90;1.00;-1.10;95360.00;;;;6150185;23;20176;-81
2022/01/13 20:46:50;;;;;;;1.90;1.30;;;-0.90;1.00;-0.60;95494.00;;;;6151174;23;20176;-82
2022/01/13 20:49:20;;;;;;;2.83;1.33;;;-0.80;99.90;-1.20;95762.00;;;;6173415;23;20169;-80
2022/01/13 20:51:48;;;;;;;1.73;1.23;;;-0.70;99.90;-0.70;95511.00;;;;6175130;23;20206;-82
2022/01/13 20:54:16;;;;;;;1.53;1.10;;;-0.60;99.90;-0.60;95406.00;;;;6151361;23;20172;-81
2022/01/13 20:56:45;;;;;;;0.87;0.70;;;-0.60;99.90;-0.30;95779.00;;;;6175192;23;20236;-82
2022/01/13 20:59:15;;;;;;;1.23;0.73;;;-0.60;99.90;-0.50;95376.00;;;;6149305;23;20185;-81
2022/01/13 21:01:44;;;;;;;0.53;0.53;;;-0.50;99.90;-1.40;95497.00;;;;6170240;23;20168;-81
2022/01/13 21:04:13;;;;;;;2.70;1.03;;;-0.40;99.90;-0.50;95846.00;;;;6174585;23;20180;-81
2022/01/13 21:06:42;;;;;;;2.40;1.00;;;-0.40;99.90;-0.30;95565.00;;;;6144943;23;20192;-81
2022/01/13 21:09:10;;;;;;;1.83;0.57;;;-0.30;99.90;-0.20;95520.00;;;;6147361;23;20217;-81
2022/01/13 21:11:38;;;;;;;4.20;1.10;;;-0.40;99.90;-1.30;95447.00;;;;6150348;23;20200;-81
2022/01/13 21:14:06;;;;;;;8.37;1.77;;;-0.40;99.90;-0.20;95476.00;;;;6150033;23;20695;-81
2022/01/13 21:16:36;;;;;;;10.50;2.40;;;-0.30;99.90;-1.10;95549.00;;;;6169700;23;20239;-81
2022/01/13 21:19:04;;;;;;;6.03;1.47;;;-0.40;99.90;-0.70;95617.00;;;;6140001;23;20176;-81
2022/01/13 21:21:31;;;;;;;36.03;6.57;;;-0.40;99.90;-0.50;95492.00;;;;6162077;23;20172;-80
2022/01/13 21:23:59;;;;;;;9.77;1.83;;;-0.30;99.90;-0.20;95440.00;;;;6158043;23;20180;-81
2022/01/13 21:26:27;;;;;;;3.50;1.33;;;-0.30;99.90;-1.20;95708.00;;;;6133981;23;20934;-80
2022/01/13 21:28:55;;;;;;;9.17;1.37;;;-0.30;99.90;-0.20;95562.00;;;;6134228;23;20174;-81
2022/01/13 21:31:22;;;;;;;2.80;0.90;;;-0.20;99.90;-0.10;95317.00;;;;6159748;23;20181;-80
2022/01/13 21:33:56;;;;;;;3.00;1.30;;;-0.20;99.90;0.00;95367.00;;;;6160180;23;20180;-81
2022/01/13 21:36:28;;;;;;;4.07;1.10;;;-0.20;99.90;-1.20;95395.00;;;;6187174;23;20187;-81
2022/01/13 21:38:55;;;;;;;2.90;0.90;;;-0.20;99.90;-0.10;95528.00;;;;6160006;23;20604;-81
2022/01/13 21:41:28;;;;;;;1.20;0.47;;;-0.20;99.90;-0.10;95344.00;;;;6134462;23;20663;-80
2022/01/13 21:43:55;;;;;;;1.40;0.70;;;-0.30;99.90;-0.60;95374.00;;;;6134488;23;20161;-81
2022/01/13 21:46:24;;;;;;;0.53;0.50;;;-0.30;99.90;-0.10;95792.00;;;;6132754;23;20176;-80
2022/01/13 21:48:51;;;;;;;0.80;0.50;;;-0.20;99.90;0.00;95470.00;;;;6157815;23;20176;-81
2022/01/13 21:51:19;;;;;;;2.10;0.57;;;-0.20;45.40;0.00;95473.00;;;;6132393;23;20176;-80
2022/01/13 21:53:49;;;;;;;0.93;0.50;;;-0.20;99.90;-1.10;95770.00;;;;6182717;23;20178;-81
2022/01/13 21:56:16;;;;;;;0.90;0.50;;;-0.20;99.90;-0.40;95502.00;;;;6134108;23;20608;-81
2022/01/13 21:58:44;;;;;;;1.43;0.77;;;-0.20;99.90;-0.20;95494.00;;;;6182482;23;20611;-81
2022/01/13 22:01:12;;;;;;;0.63;0.60;;;-0.20;99.90;-1.10;95427.00;;;;6183021;23;20223;-81
2022/01/13 22:03:39;;;;;;;1.03;0.60;;;-0.30;99.90;-0.10;95411.00;;;;6157373;23;20921;-80
2022/01/13 22:06:06;;;;;;;1.50;0.50;;;-0.30;99.90;-0.20;95774.00;;;;6133057;23;20192;-80
2022/01/13 22:11:06;;;;;;;0.83;0.63;;;-0.40;99.90;-1.40;95316.00;;;;6158319;23;20188;-80
2022/01/13 22:13:35;;;;;;;0.33;0.20;;;-0.30;99.90;-1.10;95847.00;;;;6132084;23;20176;-80
2022/01/13 22:16:06;;;;;;;0.40;0.40;;;-0.30;99.90;0.10;95449.00;;;;6156907;23;20236;-80
2022/01/13 22:18:37;;;;;;;0.50;0.30;;;-0.30;99.90;0.10;95339.00;;;;6133828;23;20626;-81
2022/01/13 22:21:07;;;;;;;0.73;0.50;;;-0.10;99.90;0.20;95755.00;;;;6133487;23;20193;-81
2022/01/13 22:23:34;;;;;;;0.93;0.40;;;-0.10;99.90;-0.30;95381.00;;;;6133727;23;20169;-82
2022/01/13 22:26:03;;;;;;;0.20;0.20;;;0.00;99.90;0.00;95391.00;;;;6135451;23;20215;-81
2022/01/13 22:28:30;;;;;;;0.40;0.30;;;0.00;99.90;0.00;95495.00;;;;6160451;23;20176;-81
2022/01/13 22:30:58;;;;;;;0.40;0.27;;;0.00;99.90;0.40;95749.00;;;;6136184;23;20663;-81
2022/01/13 22:33:26;;;;;;;1.10;0.30;;;0.10;99.90;0.30;95643.00;;;;6137578;23;20176;-81
2022/01/13 22:35:54;;;;;;;0.43;0.20;;;0.10;99.90;0.40;95438.00;;;;6136046;23;20183;-81
2022/01/13 22:38:21;;;;;;;0.23;0.20;;;0.10;99.90;0.30;95522.00;;;;6185506;23;20615;-81
2022/01/13 22:40:53;;;;;;;0.20;0.20;;;0.20;47.00;0.30;95723.00;;;;6162113;23;20196;-81
2022/01/13 22:43:22;;;;;;;0.47;0.30;;;0.20;63.50;0.30;95490.00;;;;6135244;23;20169;-80
2022/01/13 22:45:50;;;;;;;0.60;0.30;;;0.20;45.00;-0.90;95405.00;;;;6158883;23;20172;-81
2022/01/13 22:48:17;;;;;;;0.00;0.00;;;0.30;1.00;0.60;95667.00;;;;6157484;23;20172;-81
2022/01/13 22:50:45;;;;;;;0.30;0.30;;;0.40;1.00;0.70;95564.00;;;;6157193;23;20169;-81
2022/01/13 22:53:12;;;;;;;0.20;0.20;;;0.50;1.00;0.70;95691.00;;;;6133341;23;20176;-80
2022/01/13 22:55:39;;;;;;;0.23;0.17;;;0.60;1.00;0.70;95703.00;;;;6132439;23;20236;-81
2022/01/13 22:58:07;;;;;;;0.30;0.20;;;0.60;45.50;0.70;95434.00;;;;6158064;23;20181;-80
2022/01/13 23:00:45;;;;;;;0.23;0.23;;;0.60;45.80;0.70;95687.00;;;;6132812;23;20192;-81
2022/01/13 23:03:16;;;;;;;0.63;0.20;;;0.60;46.10;0.70;95576.00;;;;6133710;23;20153;-81
2022/01/13 23:05:46;;;;;;;0.20;0.10;;;0.60;99.90;0.70;95442.00;;;;6137281;23;20654;-81
2022/01/13 23:08:13;;;;;;;0.30;0.20;;;0.60;28.80;0.70;95795.00;;;;6185953;23;20176;-81
2022/01/13 23:10:41;;;;;;;0.10;0.10;;;0.60;45.90;0.40;95532.00;;;;6135901;23;20333;-81
2022/01/13 23:13:10;;;;;;;0.00;0.00;;;0.60;1.00;-0.20;95421.00;;;;6161666;23;20202;-80
2022/01/13 23:23:56;;;;;;;0.47;0.30;;;0.60;1.00;0.60;95637.00;;;;6157928;23;20175;-80
2022/01/13 23:26:24;;;;;;;0.27;0.10;;;0.60;1.00;0.70;95621.00;;;;6134670;23;20229;-80
2022/01/13 23:28:54;;;;;;;0.20;0.10;;;0.60;1.00;0.60;95619.00;;;;6160884;23;20192;-80
2022/01/13 23:31:21;;;;;;;0.40;0.20;;;0.60;1.00;0.60;95634.00;;;;6135823;23;20168;-80
2022/01/13 23:33:48;;;;;;;0.20;0.20;;;0.60;1.00;0.60;95634.00;;;;6137317;23;20659;-81
2022/01/13 23:36:16;;;;;;;0.10;0.10;;;0.60;1.00;0.70;95666.00;;;;6137443;23;20172;-80